Time;durP1;ratioP1;P1;durP2;ratioP2;P2;SDS_P1;SDS_P2;PMS_P1;PMS_P2;Temp;Humidity;BMP_temperature;BMP_pressure;BME280_temperature;BME280_humidity;BME280_pressure;Samples;Min_cycle;Max_cycle;Signal;HPM_P1;HPM_P2
2022/05/27 00:00:39;;;;;;;9.63;5.43;;;;;;;18.66;48.79;99535.25;5085144;28;20056;-74
2022/05/27 00:03:07;;;;;;;17.90;10.52;;;;;;;16.65;48.36;99188.56;5085591;28;20072;-75
2022/05/27 00:05:34;;;;;;;8.82;5.50;;;;;;;18.58;48.88;99533.22;5085469;28;20308;-75
2022/05/27 00:08:03;;;;;;;5.28;2.63;;;;;;;18.57;49.10;99528.84;5085202;28;20101;-75
2022/05/27 00:10:30;;;;;;;4.28;2.58;;;;;;;18.59;48.94;99523.34;5085474;28;20056;-74
2022/05/27 00:12:57;;;;;;;5.50;2.65;;;;;;;18.55;48.93;99519.22;5085372;28;20267;-76
2022/05/27 00:15:24;;;;;;;2.80;1.70;;;;;;;18.49;48.93;99522.41;5085399;28;20316;-76
2022/05/27 00:17:52;;;;;;;2.72;1.60;;;;;;;18.44;49.32;99520.09;5085389;28;20056;-76
2022/05/27 00:20:19;;;;;;;2.60;1.60;;;;;;;18.45;48.76;99516.44;5085316;28;20177;-76
2022/05/27 00:22:46;;;;;;;2.67;1.58;;;;;;;18.41;49.18;99520.38;5085346;28;20060;-76
2022/05/27 00:25:19;;;;;;;2.80;1.52;;;;;;;18.31;49.38;99519.44;5083962;28;20317;-76
2022/05/27 00:27:46;;;;;;;2.40;1.60;;;;;;;18.29;49.52;99513.34;5085301;28;20106;-76
2022/05/27 00:30:13;;;;;;;5.05;1.80;;;;;;;18.27;49.80;99512.63;5084848;28;20053;-76
2022/05/27 00:32:42;;;;;;;2.58;1.40;;;;;;;18.28;49.43;99508.97;5084795;28;20110;-76
2022/05/27 00:35:10;;;;;;;2.53;1.58;;;;;;;18.25;49.69;99510.09;5086359;28;20258;-76
2022/05/27 00:37:37;;;;;;;2.45;1.58;;;;;;;18.26;49.76;99509.09;5089094;28;20056;-76
2022/05/27 00:40:06;;;;;;;3.00;1.70;;;;;;;18.20;49.73;99515.00;5089098;28;20106;-77
2022/05/27 00:42:39;;;;;;;3.33;1.70;;;;;;;18.14;50.26;99512.81;5088808;28;20309;-74
2022/05/27 00:45:07;;;;;;;2.50;1.70;;;;;;;17.46;49.60;99398.75;5088421;28;20320;-74
2022/05/27 00:47:39;;;;;;;5.00;1.60;;;;;;;18.10;50.41;99503.31;5088386;28;20098;-76
2022/05/27 00:50:11;;;;;;;1.95;1.30;;;;;;;18.07;50.33;99500.06;5088907;28;20056;-77
2022/05/27 00:52:41;;;;;;;2.20;1.20;;;;;;;18.04;50.25;99498.47;5087552;28;20064;-77
2022/05/27 00:55:14;;;;;;;3.25;1.33;;;;;;;18.03;50.03;99504.81;5088853;28;20106;-76
2022/05/27 00:57:48;;;;;;;2.20;1.33;;;;;;;18.01;50.00;99495.19;5087913;28;20057;-77
2022/05/27 01:00:20;;;;;;;2.05;1.50;;;;;;;17.94;50.53;99490.34;5088822;28;20052;-75
2022/05/27 01:02:48;;;;;;;2.97;1.50;;;;;;;17.94;50.11;99517.16;5088569;28;20103;-74
2022/05/27 01:05:18;;;;;;;3.08;1.60;;;;;;;17.92;50.47;99494.13;5088524;28;20056;-74
2022/05/27 01:07:46;;;;;;;3.63;1.48;;;;;;;17.86;50.60;99495.50;5088646;28;20064;-74
2022/05/27 01:10:16;;;;;;;2.20;1.50;;;;;;;17.94;50.29;99493.03;5088499;28;20060;-75
2022/05/27 01:12:57;;;;;;;3.13;1.50;;;;;;;17.91;50.61;99495.13;5088488;28;20239;-75
2022/05/27 01:15:34;;;;;;;2.45;1.42;;;;;;;17.89;50.80;99492.56;5088568;28;20060;-77
2022/05/27 01:18:15;;;;;;;2.63;1.63;;;;;;;17.49;50.88;99429.81;5088576;28;20181;-77
2022/05/27 01:20:51;;;;;;;3.63;1.58;;;;;;;17.85;50.93;99496.47;5087149;28;20056;-76
2022/05/27 01:23:57;;;;;;;3.88;1.92;;;;;;;17.89;51.65;99494.41;5088394;28;20064;-77
2022/05/27 01:27:07;;;;;;;4.35;2.25;;;;;;;17.87;51.80;99491.84;5084676;28;20056;-77
2022/05/27 01:30:27;;;;;;;3.83;2.10;;;;;;;17.87;52.38;99491.00;5087812;28;20048;-76
2022/05/27 01:33:17;;;;;;;2.00;1.30;;;;;;;17.84;52.12;99493.94;5087582;28;20060;-77
2022/05/27 01:35:52;;;;;;;2.47;1.48;;;;;;;17.79;51.73;99490.78;5087800;28;20056;-77
2022/05/27 01:38:26;;;;;;;2.65;1.48;;;;;;;17.78;51.58;99487.25;5085736;28;20064;-77
2022/05/27 01:41:00;;;;;;;2.53;1.55;;;;;;;17.76;51.36;99486.50;5087713;28;20063;-75
2022/05/27 01:43:39;;;;;;;2.28;1.55;;;;;;;17.74;52.20;99485.78;5087783;28;20052;-76
2022/05/27 01:46:12;;;;;;;2.95;1.33;;;;;;;15.60;51.63;99130.25;5086998;28;20106;-76
2022/05/27 01:48:52;;;;;;;3.15;1.90;;;;;;;17.72;52.17;99478.84;5087537;28;20317;-77
2022/05/27 01:51:27;;;;;;;2.80;1.80;;;;;;;17.69;51.91;99479.97;5087887;28;20232;-76
2022/05/27 01:53:58;;;;;;;2.47;1.40;;;;;;;17.38;51.68;99419.97;5087311;28;20098;-77
2022/05/27 01:56:33;;;;;;;3.40;1.92;;;;;;;17.42;52.03;99423.25;5086863;28;20247;-77
2022/05/27 01:59:06;;;;;;;3.55;1.52;;;;;;;17.68;51.52;99478.25;5087791;28;20114;-76
2022/05/27 02:01:38;;;;;;;3.17;1.52;;;;;;;17.66;51.69;99471.31;5087663;28;20259;-77
2022/05/27 02:04:11;;;;;;;2.63;1.42;;;;;;;17.36;51.71;99421.94;5087643;28;20323;-77
2022/05/27 02:06:44;;;;;;;4.22;1.52;;;;;;;17.57;52.19;99471.06;5086531;28;20052;-74
2022/05/27 02:09:18;;;;;;;2.42;1.38;;;;;;;16.98;52.08;99401.75;5087513;28;20309;-74
2022/05/27 02:11:49;;;;;;;3.70;1.83;;;;;;;17.57;51.91;99473.75;5087200;28;20052;-73
2022/05/27 02:14:23;;;;;;;2.72;1.70;;;;;;;17.56;52.04;99477.41;5087047;28;20052;-73
2022/05/27 02:16:55;;;;;;;6.65;2.67;;;;;;;17.58;52.15;99472.78;5087034;28;20121;-74
2022/05/27 02:19:29;;;;;;;2.95;1.90;;;;;;;17.58;52.34;99472.78;5087361;28;20056;-74
2022/05/27 02:22:02;;;;;;;2.60;1.60;;;;;;;17.51;52.14;99465.38;5087291;28;20118;-74
2022/05/27 02:24:36;;;;;;;2.95;1.63;;;;;;;17.23;51.61;99437.28;5087207;28;20048;-76
2022/05/27 02:27:05;;;;;;;;;;;;;;;17.46;53.32;99473.78;5087557;28;20102;-74
2022/05/27 02:29:34;;;;;;;3.50;1.75;;;;;;;17.49;52.14;99472.69;5086996;28;20226;-74
2022/05/27 02:32:10;;;;;;;3.75;1.80;;;;;;;17.53;52.21;99474.13;5086738;28;20118;-74
2022/05/27 02:37:35;;;;;;;3.30;1.60;;;;;;;17.39;52.35;99469.03;5086363;28;20090;-74
2022/05/27 02:40:07;;;;;;;12.75;1.95;;;;;;;17.42;52.33;99472.31;5086653;28;20056;-74
2022/05/27 02:42:45;;;;;;;2.33;1.58;;;;;;;17.40;52.65;99468.91;5086828;28;20312;-74
2022/05/27 02:45:24;;;;;;;3.45;1.70;;;;;;;17.33;52.95;99478.44;5086389;28;20060;-74
2022/05/27 02:47:58;;;;;;;2.67;1.60;;;;;;;17.34;52.60;99479.28;5086323;28;20370;-75
2022/05/27 02:50:37;;;;;;;2.40;1.50;;;;;;;17.35;52.94;99487.19;5086488;28;20129;-74
2022/05/27 02:53:13;;;;;;;3.45;1.73;;;;;;;17.35;52.86;99484.50;5086502;28;20098;-75
2022/05/27 02:56:01;;;;;;;2.75;1.88;;;;;;;17.36;53.02;99480.00;5086491;28;20338;-74
2022/05/27 02:58:30;;;;;;;2.75;1.67;;;;;;;17.30;52.59;99479.53;5085772;28;20110;-75
2022/05/27 03:00:58;;;;;;;3.38;1.80;;;;;;;17.27;52.84;99484.28;5086569;28;20040;-74
2022/05/27 03:03:25;;;;;;;2.65;1.42;;;;;;;17.20;52.84;99475.88;5086420;28;20056;-77
2022/05/27 03:06:10;;;;;;;2.50;1.60;;;;;;;17.18;53.77;99488.53;5086029;28;20098;-77
2022/05/27 03:08:45;;;;;;;5.30;1.95;;;;;;;17.18;53.12;99482.31;5086348;28;20064;-75
2022/05/27 03:11:16;;;;;;;2.70;1.48;;;;;;;17.22;52.68;99483.81;5086291;28;20114;-74
2022/05/27 03:13:58;;;;;;;2.45;1.30;;;;;;;17.23;53.47;99486.34;5086337;28;20317;-74
2022/05/27 03:16:32;;;;;;;4.32;1.80;;;;;;;17.24;53.16;99481.84;5086169;28;20056;-74
2022/05/27 03:19:21;;;;;;;2.67;1.60;;;;;;;17.24;53.80;99481.84;5086264;28;20056;-74
2022/05/27 03:21:57;;;;;;;3.03;1.40;;;;;;;17.17;53.50;99480.59;5084986;28;20056;-74
2022/05/27 03:24:37;;;;;;;2.25;1.55;;;;;;;17.17;53.93;99480.59;5085754;28;20098;-74
2022/05/27 03:27:14;;;;;;;2.10;1.40;;;;;;;15.96;53.46;99272.66;5085714;28;20060;-74
2022/05/27 03:29:48;;;;;;;2.88;1.58;;;;;;;17.19;53.53;99484.00;5085964;28;20056;-76
2022/05/27 03:32:25;;;;;;;2.13;1.42;;;;;;;17.19;53.57;99476.84;5085541;28;20109;-76
2022/05/27 03:35:00;;;;;;;2.45;1.52;;;;;;;17.16;53.56;99476.22;5085898;28;20121;-76
2022/05/27 03:37:35;;;;;;;2.13;1.52;;;;;;;17.14;53.87;99476.34;5085999;28;20074;-76
2022/05/27 03:40:07;;;;;;;2.25;1.50;;;;;;;17.13;53.31;99473.78;5085624;28;20056;-76
2022/05/27 03:42:36;;;;;;;3.00;1.40;;;;;;;17.16;52.95;99470.88;5085817;28;20258;-76
2022/05/27 03:45:08;;;;;;;3.20;1.58;;;;;;;17.22;53.45;99481.97;5086098;28;20060;-76
2022/05/27 03:47:36;;;;;;;2.58;1.40;;;;;;;17.22;53.23;99468.59;5085760;28;20094;-76
2022/05/27 03:50:06;;;;;;;2.30;1.33;;;;;;;17.23;52.84;99478.31;5085687;28;20259;-76
2022/05/27 03:52:38;;;;;;;2.72;1.45;;;;;;;17.24;53.40;99465.78;5085595;28;20052;-75
2022/05/27 03:55:07;;;;;;;2.97;1.40;;;;;;;17.30;52.51;99470.66;5085617;28;20056;-76
2022/05/27 03:57:34;;;;;;;2.65;1.13;;;;;;;16.44;52.31;99321.38;5085724;28;20239;-76
2022/05/27 04:00:01;;;;;;;1.88;1.33;;;;;;;17.36;52.38;99477.34;5085598;28;20126;-76
2022/05/27 04:02:30;;;;;;;2.55;1.27;;;;;;;17.38;52.62;99481.59;5085567;28;20061;-76
2022/05/27 04:04:58;;;;;;;2.72;1.77;;;;;;;17.38;52.86;99476.22;5086086;28;20053;-76
2022/05/27 04:07:25;;;;;;;2.47;1.70;;;;;;;17.39;52.36;99477.94;5085499;28;20053;-76
2022/05/27 04:09:54;;;;;;;1.88;1.40;;;;;;;17.39;52.64;99475.25;5084663;28;20082;-76
2022/05/27 04:12:21;;;;;;;2.90;1.48;;;;;;;17.39;52.59;99471.72;5085677;28;20056;-76
2022/05/27 04:14:50;;;;;;;2.70;1.75;;;;;;;17.37;52.52;99501.31;5085333;28;20056;-76
2022/05/27 04:17:30;;;;;;;3.50;1.33;;;;;;;17.37;52.35;99471.84;5085261;28;20052;-76
2022/05/27 04:19:58;;;;;;;5.05;1.50;;;;;;;17.06;52.70;99417.22;5084337;28;20106;-76
2022/05/27 04:22:26;;;;;;;3.40;1.67;;;;;;;17.42;52.40;99476.84;5085330;28;20335;-76
2022/05/27 04:24:56;;;;;;;4.63;1.33;;;;;;;17.40;52.98;99470.75;5085300;28;20106;-76
2022/05/27 04:27:23;;;;;;;1.77;1.25;;;;;;;16.68;52.60;99358.72;5085367;28;20053;-76
2022/05/27 04:29:52;;;;;;;2.80;1.50;;;;;;;17.43;52.78;99475.84;5085178;28;20078;-75
2022/05/27 04:32:20;;;;;;;1.67;1.20;;;;;;;17.21;52.51;99434.75;5084811;28;20062;-75
2022/05/27 04:34:49;;;;;;;2.92;1.40;;;;;;;17.48;52.35;99498.63;5085244;28;20056;-75
2022/05/27 04:37:17;;;;;;;2.50;1.40;;;;;;;17.49;52.32;99489.59;5084791;28;20110;-75
2022/05/27 04:39:45;;;;;;;2.88;1.38;;;;;;;17.51;52.61;99468.03;5084787;28;20052;-76
2022/05/27 04:42:14;;;;;;;2.28;1.40;;;;;;;17.53;52.82;99468.78;5085197;28;20106;-76
2022/05/27 04:44:42;;;;;;;2.88;1.45;;;;;;;17.29;52.49;99426.94;5085124;28;20106;-76
2022/05/27 04:47:09;;;;;;;3.28;1.50;;;;;;;17.54;52.36;99467.78;5085145;28;20099;-76
2022/05/27 04:49:53;;;;;;;1.55;1.20;;;;;;;16.65;52.64;99364.28;5084817;28;20059;-76
2022/05/27 04:52:25;;;;;;;2.63;1.50;;;;;;;17.57;52.54;99472.91;5084813;28;20090;-76
2022/05/27 04:54:54;;;;;;;3.40;1.55;;;;;;;17.58;52.47;99483.50;5085112;28;20110;-76
2022/05/27 04:57:25;;;;;;;3.70;1.50;;;;;;;17.61;53.14;99504.72;5084988;28;20056;-76
2022/05/27 04:59:52;;;;;;;2.13;1.30;;;;;;;17.08;52.29;99388.47;5085131;28;20255;-76
2022/05/27 05:02:21;;;;;;;2.92;1.67;;;;;;;17.66;52.51;99479.38;5084971;28;20106;-76
2022/05/27 05:04:49;;;;;;;1.90;1.38;;;;;;;16.98;52.70;99371.47;5084976;28;20110;-76
2022/05/27 05:07:16;;;;;;;2.17;1.27;;;;;;;17.69;52.56;99468.38;5085006;28;20056;-76
2022/05/27 05:09:44;;;;;;;2.15;1.33;;;;;;;17.69;52.46;99471.06;5084997;28;20057;-76
2022/05/27 05:12:13;;;;;;;3.75;1.58;;;;;;;17.71;52.65;99466.44;5083927;28;20053;-76
2022/05/27 05:14:42;;;;;;;3.38;1.30;;;;;;;17.72;52.74;99476.19;5084872;28;20056;-76
2022/05/27 05:17:09;;;;;;;2.20;1.40;;;;;;;17.73;52.78;99472.53;5084777;28;20049;-76
2022/05/27 05:19:37;;;;;;;2.03;1.25;;;;;;;17.65;52.52;99462.44;5084954;28;20056;-76
2022/05/27 05:22:04;;;;;;;4.80;1.75;;;;;;;17.75;52.92;99462.53;5087275;28;20056;-76
2022/05/27 05:24:32;;;;;;;2.47;1.60;;;;;;;17.73;52.39;99461.78;5088126;28;20060;-76
2022/05/27 05:26:59;;;;;;;2.10;1.38;;;;;;;17.77;52.44;99466.78;5088343;28;20040;-76
2022/05/27 05:29:27;;;;;;;2.20;1.20;;;;;;;17.24;52.63;99369.38;5088034;28;20056;-76
2022/05/27 05:31:56;;;;;;;2.92;1.67;;;;;;;17.80;52.87;99461.16;5088219;28;20102;-76
2022/05/27 05:34:23;;;;;;;3.63;2.30;;;;;;;17.82;52.52;99453.84;5087093;28;20060;-76
2022/05/27 05:36:54;;;;;;;2.08;1.27;;;;;;;17.87;52.19;99454.31;5087946;28;20052;-76
2022/05/27 05:39:21;;;;;;;4.47;1.75;;;;;;;17.90;52.16;99467.44;5087819;28;20052;-76
2022/05/27 05:41:57;;;;;;;3.60;1.65;;;;;;;17.91;53.12;99458.44;5087917;28;20182;-76
2022/05/27 05:44:24;;;;;;;2.65;1.50;;;;;;;16.30;52.00;99203.97;5087766;28;20060;-76
2022/05/27 05:46:51;;;;;;;2.40;1.65;;;;;;;17.95;51.96;99450.97;5087929;28;20110;-76
2022/05/27 05:49:20;;;;;;;3.45;1.60;;;;;;;17.99;52.46;99456.94;5087835;28;20052;-76
2022/05/27 05:51:48;;;;;;;3.03;1.65;;;;;;;18.01;52.10;99442.41;5087737;28;20217;-76
2022/05/27 05:54:15;;;;;;;4.30;1.40;;;;;;;17.77;52.06;99434.59;5087738;28;20056;-76
2022/05/27 05:56:43;;;;;;;3.50;1.52;;;;;;;18.06;51.94;99445.56;5087679;28;20056;-76
2022/05/27 05:59:10;;;;;;;2.60;1.35;;;;;;;18.11;51.71;99453.22;5087428;28;20067;-76
2022/05/27 06:01:41;;;;;;;2.45;1.52;;;;;;;18.15;51.99;99438.56;5086866;28;20042;-76
2022/05/27 06:04:08;;;;;;;3.58;1.70;;;;;;;18.21;51.95;99446.09;5087626;28;20063;-76
2022/05/27 06:06:38;;;;;;;3.88;1.77;;;;;;;16.68;51.68;99182.13;5087218;28;20052;-76
2022/05/27 06:09:07;;;;;;;1.83;1.27;;;;;;;18.34;51.36;99452.09;5087096;28;20063;-76
2022/05/27 06:11:37;;;;;;;2.05;1.38;;;;;;;18.40;51.42;99438.16;5087569;28;20060;-76
2022/05/27 06:14:04;;;;;;;2.67;1.48;;;;;;;18.47;51.10;99446.53;5087317;28;20067;-76
2022/05/27 06:16:32;;;;;;;3.30;1.63;;;;;;;18.46;50.95;99429.59;5087229;28;20056;-76
2022/05/27 06:18:59;;;;;;;2.30;1.30;;;;;;;18.49;51.04;99444.56;5086886;28;20056;-76
2022/05/27 06:21:28;;;;;;;6.50;1.52;;;;;;;18.53;50.53;99441.53;5087048;28;20190;-76
2022/05/27 06:23:57;;;;;;;3.75;1.50;;;;;;;18.56;50.61;99453.81;5087021;28;20047;-76
2022/05/27 06:26:24;;;;;;;3.55;1.70;;;;;;;18.59;50.32;99440.13;5086992;28;20068;-77
2022/05/27 06:34:25;;;;;;;2.53;1.58;;;;;;;17.71;50.16;99274.31;5086392;28;20040;-76
2022/05/27 06:36:54;;;;;;;2.53;1.70;;;;;;;18.72;50.38;99421.13;5085853;28;20055;-75
2022/05/27 06:39:25;;;;;;;3.45;1.50;;;;;;;18.76;50.26;99422.56;5086933;28;20049;-76
2022/05/27 06:41:53;;;;;;;2.45;1.30;;;;;;;18.11;50.17;99319.13;5086590;28;20216;-76
2022/05/27 06:44:21;;;;;;;4.45;1.55;;;;;;;18.90;49.73;99417.66;5086570;28;20052;-76
2022/05/27 06:46:51;;;;;;;2.83;1.20;;;;;;;17.55;49.23;99178.28;5086530;28;20327;-76
2022/05/27 06:49:19;;;;;;;3.75;1.60;;;;;;;18.92;49.22;99415.69;5086784;28;20041;-75
2022/05/27 06:51:48;;;;;;;4.32;2.03;;;;;;;18.43;49.08;99332.41;5086518;28;20052;-75
2022/05/27 06:54:17;;;;;;;3.50;1.27;;;;;;;18.78;49.07;99367.75;5086158;28;20048;-75
2022/05/27 06:56:49;;;;;;;3.35;1.35;;;;;;;19.15;48.96;99405.59;5086356;28;20067;-76
2022/05/27 06:59:17;;;;;;;3.05;1.30;;;;;;;19.31;48.54;99402.38;5086301;28;20056;-75
2022/05/27 07:01:45;;;;;;;2.08;1.40;;;;;;;19.51;48.08;99403.28;5086388;28;20056;-75
2022/05/27 07:04:13;;;;;;;3.67;1.65;;;;;;;19.05;47.63;99299.97;5086295;28;20056;-76
2022/05/27 07:06:43;;;;;;;2.60;1.38;;;;;;;18.97;47.45;99237.19;5085905;28;20085;-76
2022/05/27 07:09:12;;;;;;;3.28;1.90;;;;;;;20.05;47.11;99383.91;5084991;28;20048;-76
2022/05/27 07:11:40;;;;;;;1.75;1.30;;;;;;;20.23;47.07;99381.34;5085727;28;20052;-76
2022/05/27 07:14:09;;;;;;;3.55;1.70;;;;;;;20.38;46.29;99395.19;5086060;28;20056;-76
2022/05/27 07:16:37;;;;;;;2.63;1.30;;;;;;;20.48;46.28;99402.25;5086132;28;20197;-76
2022/05/27 07:19:05;;;;;;;2.92;1.60;;;;;;;20.57;46.34;99384.38;5084600;28;20060;-76
2022/05/27 07:21:37;;;;;;;4.20;1.50;;;;;;;20.72;45.87;99371.25;5085699;28;20056;-75
2022/05/27 07:24:05;;;;;;;1.98;1.35;;;;;;;20.89;45.95;99373.16;5085982;28;20063;-76
2022/05/27 07:26:32;;;;;;;2.05;1.27;;;;;;;20.97;45.75;99377.81;5086130;28;20052;-76
2022/05/27 07:28:59;;;;;;;2.72;1.52;;;;;;;21.07;45.33;99367.84;5085956;28;20056;-76
2022/05/27 07:31:29;;;;;;;2.13;1.45;;;;;;;21.20;45.22;99367.50;5085324;28;20074;-76
2022/05/27 07:33:57;;;;;;;2.50;1.25;;;;;;;21.32;44.96;99372.50;5085348;28;20056;-75
2022/05/27 07:36:24;;;;;;;2.08;1.40;;;;;;;21.35;44.95;99365.97;5085188;28;20225;-75
2022/05/27 07:38:52;;;;;;;2.17;1.27;;;;;;;21.49;44.87;99359.19;5085284;28;20052;-75
2022/05/27 07:41:21;;;;;;;3.15;1.50;;;;;;;21.48;43.89;99371.81;5085446;28;20079;-75
2022/05/27 07:43:49;;;;;;;5.15;1.40;;;;;;;21.13;43.93;99341.16;5085453;28;20056;-75
2022/05/27 07:46:19;;;;;;;2.42;1.40;;;;;;;21.48;43.25;99379.06;5084166;28;20044;-75
2022/05/27 07:48:48;;;;;;;3.38;1.27;;;;;;;21.50;43.22;99382.47;5085484;28;20060;-75
2022/05/27 07:51:16;;;;;;;3.78;1.73;;;;;;;21.55;43.75;99366.66;5085601;28;20243;-75
2022/05/27 07:53:44;;;;;;;2.65;1.20;;;;;;;20.88;43.00;99263.72;5086348;28;20117;-75
2022/05/27 07:56:13;;;;;;;1.95;1.20;;;;;;;20.63;42.78;99229.44;5084299;28;20052;-75
2022/05/27 07:58:40;;;;;;;3.35;1.52;;;;;;;21.63;42.76;99358.66;5084034;28;20060;-75
2022/05/27 08:01:08;;;;;;;3.03;1.35;;;;;;;21.73;43.18;99343.22;5085021;28;20086;-75
2022/05/27 08:03:36;;;;;;;2.58;1.60;;;;;;;21.56;42.52;99296.41;5085292;28;20263;-75
2022/05/27 08:06:04;;;;;;;2.70;1.23;;;;;;;21.44;43.10;99260.75;5084175;28;20044;-75
2022/05/27 08:08:31;;;;;;;3.17;1.52;;;;;;;21.98;42.84;99328.97;5085076;28;20053;-76
2022/05/27 08:10:59;;;;;;;2.25;1.20;;;;;;;22.01;42.95;99327.78;5084672;28;20064;-76
2022/05/27 08:13:27;;;;;;;4.30;1.13;;;;;;;21.55;42.61;99254.25;5085043;28;20106;-75
2022/05/27 08:15:55;;;;;;;2.22;1.20;;;;;;;22.08;42.84;99316.22;5084687;28;20060;-75
2022/05/27 08:18:24;;;;;;;2.88;1.50;;;;;;;22.23;42.54;99319.16;5084921;28;20113;-75
2022/05/27 08:20:52;;;;;;;3.45;1.13;;;;;;;22.27;41.91;99315.13;5084589;28;20053;-76
2022/05/27 08:23:21;;;;;;;2.80;1.30;;;;;;;22.14;42.52;99305.78;5084395;28;20113;-75
2022/05/27 08:25:49;;;;;;;5.03;1.80;;;;;;;22.25;42.90;99319.00;5085017;28;20320;-76
2022/05/27 08:28:16;;;;;;;2.95;1.58;;;;;;;22.36;42.44;99321.44;5085034;28;20251;-75
2022/05/27 08:30:44;;;;;;;2.45;1.40;;;;;;;22.38;41.84;99312.16;5085017;28;20040;-76
2022/05/27 08:33:11;;;;;;;2.72;1.40;;;;;;;22.38;41.97;99309.47;5083553;28;20068;-75
2022/05/27 08:38:29;;;;;;;2.13;1.17;;;;;;;22.26;40.93;99307.19;5084246;28;20102;-76
2022/05/27 08:41:30;;;;;;;2.67;1.25;;;;;;;22.24;40.61;99299.25;5084886;28;20110;-76
2022/05/27 08:44:16;;;;;;;4.13;1.33;;;;;;;22.33;40.89;99300.16;5085039;28;20105;-76
2022/05/27 08:47:01;;;;;;;4.13;1.38;;;;;;;22.41;40.77;99306.47;5085249;28;20053;-76
2022/05/27 08:49:33;;;;;;;2.22;1.25;;;;;;;22.52;41.00;99299.09;5084894;28;20044;-75
2022/05/27 08:52:07;;;;;;;2.17;1.40;;;;;;;21.32;41.14;99102.13;5084949;28;20060;-75
2022/05/27 08:54:40;;;;;;;2.45;1.52;;;;;;;22.64;41.02;99301.38;5084876;28;20052;-75
2022/05/27 09:00:01;;;;;;;2.50;1.23;;;;;;;22.70;41.05;99287.22;5088579;28;20032;-76
2022/05/27 09:02:35;;;;;;;2.50;1.15;;;;;;;22.85;41.01;99276.63;5088401;28;20056;-76
2022/05/27 09:05:15;;;;;;;3.35;1.30;;;;;;;22.96;40.64;99283.56;5088243;28;20113;-76
2022/05/27 09:07:50;;;;;;;3.38;2.15;;;;;;;22.92;40.76;99298.44;5088760;28;20044;-78
2022/05/27 09:10:23;;;;;;;2.70;1.38;;;;;;;22.97;40.68;99286.13;5088532;28;20106;-77
2022/05/27 09:13:21;;;;;;;2.35;1.55;;;;;;;22.85;40.19;99251.47;5088227;28;20263;-78
2022/05/27 09:15:56;;;;;;;3.35;1.77;;;;;;;23.07;40.28;99277.84;5088053;28;20055;-76
2022/05/27 09:18:35;;;;;;;2.75;1.48;;;;;;;23.12;39.95;99288.16;5088335;28;20082;-76
2022/05/27 09:21:17;;;;;;;4.13;1.20;;;;;;;22.87;39.91;99217.84;5088214;28;20064;-76
2022/05/27 09:24:15;;;;;;;2.72;1.52;;;;;;;23.20;39.79;99248.47;5088210;28;20180;-77
2022/05/27 09:26:52;;;;;;;3.83;1.60;;;;;;;23.19;39.59;99262.16;5087752;28;20317;-76
2022/05/27 09:29:44;;;;;;;4.82;1.60;;;;;;;23.08;39.20;99274.13;5087998;28;20045;-77
2022/05/27 09:32:19;;;;;;;2.40;1.40;;;;;;;23.16;39.82;99238.16;5087639;28;20052;-77
2022/05/27 09:34:48;;;;;;;2.20;1.40;;;;;;;23.19;39.55;99241.38;5088030;28;20064;-75
2022/05/27 09:37:24;;;;;;;2.33;1.30;;;;;;;23.01;39.38;99186.63;5088034;28;20056;-76
2022/05/27 09:39:54;;;;;;;2.58;1.55;;;;;;;23.32;39.98;99225.53;5087308;28;20063;-77
2022/05/27 09:42:30;;;;;;;2.60;1.40;;;;;;;23.43;39.27;99231.63;5087759;28;20304;-76
2022/05/27 09:44:59;;;;;;;2.15;1.55;;;;;;;21.36;40.28;98887.84;5087922;28;20052;-77
2022/05/27 09:47:31;;;;;;;3.30;1.20;;;;;;;23.50;39.03;99232.63;5087772;28;20057;-76
2022/05/27 09:50:00;;;;;;;2.97;1.30;;;;;;;23.49;39.18;99220.13;5087568;28;20110;-76
2022/05/27 09:52:32;;;;;;;1.65;1.00;;;;;;;23.42;39.33;99211.84;5087786;28;20085;-76
2022/05/27 09:55:02;;;;;;;2.35;1.40;;;;;;;23.54;39.37;99212.34;5086485;28;20049;-76
2022/05/27 09:57:32;;;;;;;4.35;1.60;;;;;;;23.59;39.21;99237.84;5087575;28;20109;-78
2022/05/27 10:00:03;;;;;;;2.15;1.38;;;;;;;22.64;39.08;99090.69;5087557;28;20060;-76
2022/05/27 10:02:33;;;;;;;2.05;1.45;;;;;;;23.75;39.68;99212.66;5087666;28;20061;-75
2022/05/27 10:05:02;;;;;;;4.80;1.30;;;;;;;23.90;38.70;99223.59;5087675;28;20053;-76
2022/05/27 10:07:37;;;;;;;2.65;1.60;;;;;;;23.94;38.13;99216.81;5085835;28;20057;-76
2022/05/27 10:10:26;;;;;;;5.28;1.38;;;;;;;23.96;37.64;99236.44;5087308;28;20056;-76
2022/05/27 10:12:55;;;;;;;3.75;1.50;;;;;;;23.90;38.12;99218.19;5086407;28;20066;-75
2022/05/27 10:15:31;;;;;;;2.72;1.38;;;;;;;23.77;37.93;99209.75;5087249;28;20094;-77
2022/05/27 10:18:17;;;;;;;2.30;1.05;;;;;;;23.67;37.40;99215.38;5087407;28;20323;-76
2022/05/27 10:20:48;;;;;;;1.92;1.33;;;;;;;23.77;38.88;99198.94;5086828;28;20052;-76
2022/05/27 10:23:25;;;;;;;4.25;1.40;;;;;;;23.83;37.99;99211.78;5086867;28;20053;-76
2022/05/27 10:25:52;;;;;;;3.75;1.50;;;;;;;23.52;38.66;99144.88;5087085;28;20064;-75
2022/05/27 10:28:29;;;;;;;1.45;0.90;;;;;;;23.87;37.79;99188.78;5086980;28;20247;-76
2022/05/27 10:31:00;;;;;;;2.90;1.63;;;;;;;24.07;38.20;99178.41;5087046;28;20064;-76
2022/05/27 10:33:39;;;;;;;2.88;1.33;;;;;;;23.83;37.34;99123.31;5086951;28;20316;-76
2022/05/27 10:36:40;;;;;;;2.33;1.45;;;;;;;24.06;37.23;99182.13;5087048;28;20231;-76
2022/05/27 10:39:13;;;;;;;2.25;1.42;;;;;;;23.97;37.38;99171.34;5083450;28;20109;-75
2022/05/27 10:41:53;;;;;;;3.88;1.42;;;;;;;23.72;37.30;99139.09;5086336;28;20052;-77
2022/05/27 10:44:34;;;;;;;2.15;1.10;;;;;;;23.91;37.32;99165.75;5086521;28;20086;-77
2022/05/27 10:47:02;;;;;;;2.53;1.33;;;;;;;22.31;38.06;98946.66;5087381;28;20048;-77
2022/05/27 10:49:50;;;;;;;1.80;1.10;;;;;;;23.88;37.67;99163.41;5086435;28;20048;-77
2022/05/27 10:52:33;;;;;;;3.25;1.40;;;;;;;23.89;37.99;99146.13;5086208;28;20056;-76
2022/05/27 10:55:13;;;;;;;2.08;1.25;;;;;;;23.96;37.75;99163.38;5086400;28;20098;-76
2022/05/27 11:04:07;;;;;;;3.45;1.48;;;;;;;24.07;38.06;99129.69;5086188;28;20086;-75
2022/05/27 11:06:55;;;;;;;2.65;1.45;;;;;;;24.18;38.12;99118.47;5085999;28;20205;-73
2022/05/27 11:09:35;;;;;;;5.07;1.63;;;;;;;23.40;38.33;99058.88;5086146;28;20052;-74
2022/05/27 11:12:08;;;;;;;3.38;1.38;;;;;;;24.21;38.64;99120.81;5086107;28;20052;-73
2022/05/27 11:17:49;;;;;;;2.58;1.48;;;;;;;24.26;38.16;99111.16;5086136;28;20086;-74
2022/05/27 11:20:57;;;;;;;5.28;1.60;;;;;;;24.15;37.84;99119.66;5085122;28;20064;-74
2022/05/27 11:23:44;;;;;;;4.30;1.83;;;;;;;24.13;38.29;99115.44;5085899;28;20057;-74
2022/05/27 11:26:19;;;;;;;2.90;1.25;;;;;;;20.40;38.66;98502.38;5085571;28;20102;-72
2022/05/27 11:29:07;;;;;;;4.63;1.95;;;;;;;24.17;38.87;99109.50;5085683;28;20052;-73
2022/05/27 11:31:46;;;;;;;4.47;1.60;;;;;;;23.86;38.92;99041.78;5085649;28;20114;-74
2022/05/27 11:34:26;;;;;;;2.83;1.33;;;;;;;24.33;38.47;99105.84;5086005;28;20283;-74
2022/05/27 11:37:13;;;;;;;3.63;1.80;;;;;;;23.69;38.19;98999.59;5084413;28;20044;-73
2022/05/27 11:40:03;;;;;;;2.58;1.50;;;;;;;24.46;38.33;99097.13;5085759;28;20056;-74
2022/05/27 11:43:05;;;;;;;2.67;1.88;;;;;;;24.62;38.04;99094.31;5085566;28;20040;-73
2022/05/27 11:45:33;;;;;;;2.10;1.20;;;;;;;24.54;38.30;99087.09;5085124;28;20083;-73
2022/05/27 11:48:03;;;;;;;4.07;1.42;;;;;;;24.45;38.45;99115.25;5085651;28;20053;-74
2022/05/27 11:51:07;;;;;;;2.83;1.30;;;;;;;24.45;37.86;99104.44;5085576;28;20048;-73
2022/05/27 11:53:50;;;;;;;2.55;1.65;;;;;;;23.97;38.11;99032.47;5067213;28;20064;-73
2022/05/27 11:56:24;;;;;;;3.42;1.80;;;;;;;24.37;38.42;99087.38;5085202;28;20052;-74
2022/05/27 11:58:58;;;;;;;2.33;1.33;;;;;;;24.29;38.12;99101.81;5085202;28;20194;-73
2022/05/27 12:01:36;;;;;;;5.97;1.83;;;;;;;24.24;38.01;99074.44;5085167;28;20178;-73
2022/05/27 12:04:11;;;;;;;2.92;1.70;;;;;;;24.25;38.41;99070.69;5085430;28;20064;-73
2022/05/27 12:06:46;;;;;;;3.35;1.77;;;;;;;24.22;38.27;99076.47;5085387;28;20312;-73
2022/05/27 12:09:22;;;;;;;5.63;2.10;;;;;;;24.32;38.43;99066.25;5085510;28;20053;-74
2022/05/27 12:11:53;;;;;;;4.85;1.77;;;;;;;24.33;38.63;99067.94;5085201;28;20053;-73
2022/05/27 12:14:29;;;;;;;2.85;1.50;;;;;;;24.29;38.50;99036.81;5085370;28;20057;-74
2022/05/27 12:17:00;;;;;;;2.53;1.75;;;;;;;24.39;38.52;99067.22;5085129;28;20098;-74
2022/05/27 12:19:30;;;;;;;1.85;1.17;;;;;;;24.41;38.28;99051.63;5085177;28;20312;-73
2022/05/27 12:22:07;;;;;;;13.00;1.92;;;;;;;24.06;37.58;98989.94;5084650;28;20197;-73
2022/05/27 12:24:38;;;;;;;2.38;1.13;;;;;;;24.43;37.76;99046.88;5084888;28;20106;-73